Aviation Digital Data Service (ADDS)

Output produced by METARs form (1310 UTC 15 November 2018)
found at http://www.aviationweather.gov/metar/data/
 
GGOV 151200Z 01006KT 340V040 CAVOK 28/20 Q1011 NOSIG
TAF COR GGOV 151100Z 1512/1612 34007KT 8000 NSC 
     PROB30 
     TEMPO 1604/1608 3000 BR